sensor_id;sensor_type;location;lat;lon;timestamp;temperature;humidity
43991;DHT22;29654;50.784;20.604;2023-02-01T07:35:12;9.50;57.10
43991;DHT22;29654;50.784;20.604;2023-02-01T07:40:15;9.50;56.90
43991;DHT22;29654;50.784;20.604;2023-02-01T07:45:19;9.40;56.90
43991;DHT22;29654;50.784;20.604;2023-02-01T07:50:23;9.40;57.00
43991;DHT22;29654;50.784;20.604;2023-02-01T07:55:25;9.40;57.10
43991;DHT22;29654;50.784;20.604;2023-02-01T08:00:28;9.30;57.10
43991;DHT22;29654;50.784;20.604;2023-02-01T08:05:53;9.30;57.10
43991;DHT22;29654;50.784;20.604;2023-02-01T08:11:01;9.30;57.20
43991;DHT22;29654;50.784;20.604;2023-02-01T08:16:06;9.30;57.10
43991;DHT22;29654;50.784;20.604;2023-02-01T08:21:13;9.30;57.10
43991;DHT22;29654;50.784;20.604;2023-02-01T08:26:18;9.40;57.20
43991;DHT22;29654;50.784;20.604;2023-02-01T08:31:23;9.40;57.30
43991;DHT22;29654;50.784;20.604;2023-02-01T08:36:30;9.40;57.30
43991;DHT22;29654;50.784;20.604;2023-02-01T08:41:33;9.40;57.30
43991;DHT22;29654;50.784;20.604;2023-02-01T08:46:35;9.50;57.30
43991;DHT22;29654;50.784;20.604;2023-02-01T08:51:39;9.50;57.30
43991;DHT22;29654;50.784;20.604;2023-02-01T08:56:41;9.60;57.30
43991;DHT22;29654;50.784;20.604;2023-02-01T09:01:44;9.60;57.20
43991;DHT22;29654;50.784;20.604;2023-02-01T09:06:48;9.60;57.20
43991;DHT22;29654;50.784;20.604;2023-02-01T09:11:50;9.70;57.20
43991;DHT22;29654;50.784;20.604;2023-02-01T09:16:53;9.70;57.90
43991;DHT22;29654;50.784;20.604;2023-02-01T09:21:57;9.70;57.20
43991;DHT22;29654;50.784;20.604;2023-02-01T09:27:00;9.70;57.10
43991;DHT22;29654;50.784;20.604;2023-02-01T09:32:02;9.80;57.10
43991;DHT22;29654;50.784;20.604;2023-02-01T09:37:07;9.80;57.20
43991;DHT22;29654;50.784;20.604;2023-02-01T09:42:21;9.80;57.10
43991;DHT22;29654;50.784;20.604;2023-02-01T09:47:30;9.80;57.00
43991;DHT22;29654;50.784;20.604;2023-02-01T09:52:40;9.80;57.00
43991;DHT22;29654;50.784;20.604;2023-02-01T09:57:51;9.80;57.10
43991;DHT22;29654;50.784;20.604;2023-02-01T10:02:57;9.80;57.10
43991;DHT22;29654;50.784;20.604;2023-02-01T10:08:05;9.80;57.20
43991;DHT22;29654;50.784;20.604;2023-02-01T10:13:33;9.90;57.10
43991;DHT22;29654;50.784;20.604;2023-02-01T10:18:56;9.80;57.10
43991;DHT22;29654;50.784;20.604;2023-02-01T10:24:17;9.90;57.30
43991;DHT22;29654;50.784;20.604;2023-02-01T10:29:32;9.90;57.20
43991;DHT22;29654;50.784;20.604;2023-02-01T10:34:37;9.90;57.10
43991;DHT22;29654;50.784;20.604;2023-02-01T10:39:41;9.90;57.00
43991;DHT22;29654;50.784;20.604;2023-02-01T10:44:45;9.90;57.10
43991;DHT22;29654;50.784;20.604;2023-02-01T10:49:55;9.90;57.10
43991;DHT22;29654;50.784;20.604;2023-02-01T10:55:36;10.00;57.30
43991;DHT22;29654;50.784;20.604;2023-02-01T11:00:44;10.00;57.40
43991;DHT22;29654;50.784;20.604;2023-02-01T11:05:48;10.00;57.30
43991;DHT22;29654;50.784;20.604;2023-02-01T11:10:59;10.00;57.30
43991;DHT22;29654;50.784;20.604;2023-02-01T11:16:04;10.10;57.20
43991;DHT22;29654;50.784;20.604;2023-02-01T11:21:08;10.10;57.20
43991;DHT22;29654;50.784;20.604;2023-02-01T11:26:15;10.20;57.30
43991;DHT22;29654;50.784;20.604;2023-02-01T11:31:25;10.30;57.50
43991;DHT22;29654;50.784;20.604;2023-02-01T11:36:31;10.40;57.50
43991;DHT22;29654;50.784;20.604;2023-02-01T11:41:41;10.60;57.40
43991;DHT22;29654;50.784;20.604;2023-02-01T11:46:44;10.70;57.10
43991;DHT22;29654;50.784;20.604;2023-02-01T11:52:01;10.80;56.90
43991;DHT22;29654;50.784;20.604;2023-02-01T11:57:24;10.90;56.60
43991;DHT22;29654;50.784;20.604;2023-02-01T12:03:21;11.00;56.40
43991;DHT22;29654;50.784;20.604;2023-02-01T12:14:31;11.00;56.00
43991;DHT22;29654;50.784;20.604;2023-02-01T12:19:58;11.10;56.20
43991;DHT22;29654;50.784;20.604;2023-02-01T12:25:28;11.00;55.90
43991;DHT22;29654;50.784;20.604;2023-02-01T12:31:00;11.10;55.90
43991;DHT22;29654;50.784;20.604;2023-02-01T12:36:21;11.10;55.80
43991;DHT22;29654;50.784;20.604;2023-02-01T12:41:44;11.20;55.90
43991;DHT22;29654;50.784;20.604;2023-02-01T12:46:58;11.20;55.70
43991;DHT22;29654;50.784;20.604;2023-02-01T12:52:06;11.20;55.80
43991;DHT22;29654;50.784;20.604;2023-02-01T12:57:16;11.30;55.70
43991;DHT22;29654;50.784;20.604;2023-02-01T13:02:27;11.40;55.60
43991;DHT22;29654;50.784;20.604;2023-02-01T13:07:37;11.40;55.40
43991;DHT22;29654;50.784;20.604;2023-02-01T13:12:50;11.40;55.40
43991;DHT22;29654;50.784;20.604;2023-02-01T13:18:09;11.40;55.20
43991;DHT22;29654;50.784;20.604;2023-02-01T13:23:23;11.40;55.00
43991;DHT22;29654;50.784;20.604;2023-02-01T13:28:32;11.40;55.00
43991;DHT22;29654;50.784;20.604;2023-02-01T13:33:59;11.20;55.00
43991;DHT22;29654;50.784;20.604;2023-02-01T13:39:26;11.10;55.20
43991;DHT22;29654;50.784;20.604;2023-02-01T13:45:14;11.00;55.50
43991;DHT22;29654;50.784;20.604;2023-02-01T13:50:23;10.80;55.50
43991;DHT22;29654;50.784;20.604;2023-02-01T13:55:33;10.80;55.70
43991;DHT22;29654;50.784;20.604;2023-02-01T14:00:38;10.70;55.80
43991;DHT22;29654;50.784;20.604;2023-02-01T14:06:14;10.70;55.90
43991;DHT22;29654;50.784;20.604;2023-02-01T14:11:36;10.60;55.80
43991;DHT22;29654;50.784;20.604;2023-02-01T14:16:41;10.60;55.80
43991;DHT22;29654;50.784;20.604;2023-02-01T14:21:50;10.60;55.90
43991;DHT22;29654;50.784;20.604;2023-02-01T14:26:59;10.60;55.90
43991;DHT22;29654;50.784;20.604;2023-02-01T14:32:06;10.60;56.00
43991;DHT22;29654;50.784;20.604;2023-02-01T14:37:25;10.60;56.00
43991;DHT22;29654;50.784;20.604;2023-02-01T14:42:39;10.60;55.90
43991;DHT22;29654;50.784;20.604;2023-02-01T14:47:45;10.60;55.80
43991;DHT22;29654;50.784;20.604;2023-02-01T14:53:14;10.50;55.90
43991;DHT22;29654;50.784;20.604;2023-02-01T14:58:31;10.50;55.90
43991;DHT22;29654;50.784;20.604;2023-02-01T15:03:44;10.50;55.90
43991;DHT22;29654;50.784;20.604;2023-02-01T15:08:54;10.50;56.00
43991;DHT22;29654;50.784;20.604;2023-02-01T15:13:58;10.40;56.00
43991;DHT22;29654;50.784;20.604;2023-02-01T15:19:09;10.40;55.90
43991;DHT22;29654;50.784;20.604;2023-02-01T15:24:18;10.40;56.10
43991;DHT22;29654;50.784;20.604;2023-02-01T15:29:24;10.30;56.10
43991;DHT22;29654;50.784;20.604;2023-02-01T15:34:44;10.30;56.20
43991;DHT22;29654;50.784;20.604;2023-02-01T15:40:19;10.20;56.40
43991;DHT22;29654;50.784;20.604;2023-02-01T15:45:26;10.20;56.40
43991;DHT22;29654;50.784;20.604;2023-02-01T15:50:31;10.20;56.50
43991;DHT22;29654;50.784;20.604;2023-02-01T15:55:37;10.10;56.40
43991;DHT22;29654;50.784;20.604;2023-02-01T16:00:44;10.00;56.50
43991;DHT22;29654;50.784;20.604;2023-02-01T16:05:55;10.00;56.50
43991;DHT22;29654;50.784;20.604;2023-02-01T16:11:16;9.90;56.60
43991;DHT22;29654;50.784;20.604;2023-02-01T16:16:25;9.80;56.60
43991;DHT22;29654;50.784;20.604;2023-02-01T16:21:28;9.80;56.50
43991;DHT22;29654;50.784;20.604;2023-02-01T16:26:33;9.70;56.50
43991;DHT22;29654;50.784;20.604;2023-02-01T16:31:38;9.60;56.50
43991;DHT22;29654;50.784;20.604;2023-02-01T16:36:41;9.50;56.80
43991;DHT22;29654;50.784;20.604;2023-02-01T16:41:45;9.40;56.80
43991;DHT22;29654;50.784;20.604;2023-02-01T16:46:48;9.40;56.80
43991;DHT22;29654;50.784;20.604;2023-02-01T16:51:54;9.30;56.80
43991;DHT22;29654;50.784;20.604;2023-02-01T16:57:00;9.20;57.00
43991;DHT22;29654;50.784;20.604;2023-02-01T17:02:04;9.10;57.20
43991;DHT22;29654;50.784;20.604;2023-02-01T17:07:07;9.10;57.50
43991;DHT22;29654;50.784;20.604;2023-02-01T17:12:19;9.10;57.40
43991;DHT22;29654;50.784;20.604;2023-02-01T17:17:27;9.10;57.50
43991;DHT22;29654;50.784;20.604;2023-02-01T17:22:34;9.00;57.50
43991;DHT22;29654;50.784;20.604;2023-02-01T17:27:38;9.00;57.50
43991;DHT22;29654;50.784;20.604;2023-02-01T17:32:42;9.00;57.60
43991;DHT22;29654;50.784;20.604;2023-02-01T17:37:44;9.00;57.50
43991;DHT22;29654;50.784;20.604;2023-02-01T17:42:49;9.00;57.50
43991;DHT22;29654;50.784;20.604;2023-02-01T17:47:52;8.90;57.50
43991;DHT22;29654;50.784;20.604;2023-02-01T17:52:54;8.80;58.20
43991;DHT22;29654;50.784;20.604;2023-02-01T17:57:58;8.70;58.60
43991;DHT22;29654;50.784;20.604;2023-02-01T18:03:01;8.60;58.80
43991;DHT22;29654;50.784;20.604;2023-02-01T18:08:03;8.60;59.00
43991;DHT22;29654;50.784;20.604;2023-02-01T18:13:09;8.50;58.90
43991;DHT22;29654;50.784;20.604;2023-02-01T18:18:11;8.60;59.20
43991;DHT22;29654;50.784;20.604;2023-02-01T18:23:15;8.60;59.10
43991;DHT22;29654;50.784;20.604;2023-02-01T18:28:20;8.60;58.90
43991;DHT22;29654;50.784;20.604;2023-02-01T18:33:23;8.70;58.80
43991;DHT22;29654;50.784;20.604;2023-02-01T18:38:25;8.80;58.60
43991;DHT22;29654;50.784;20.604;2023-02-01T18:43:29;8.90;58.40
43991;DHT22;29654;50.784;20.604;2023-02-01T18:48:32;9.00;59.00
43991;DHT22;29654;50.784;20.604;2023-02-01T18:53:35;9.10;58.40
43991;DHT22;29654;50.784;20.604;2023-02-01T18:58:39;9.10;58.10
43991;DHT22;29654;50.784;20.604;2023-02-01T19:03:42;9.10;58.10
43991;DHT22;29654;50.784;20.604;2023-02-01T19:08:45;9.10;58.10
43991;DHT22;29654;50.784;20.604;2023-02-01T19:13:50;9.10;58.10
43991;DHT22;29654;50.784;20.604;2023-02-01T19:18:54;9.20;58.20
43991;DHT22;29654;50.784;20.604;2023-02-01T19:23:57;9.10;58.10
43991;DHT22;29654;50.784;20.604;2023-02-01T19:29:01;9.20;58.10
43991;DHT22;29654;50.784;20.604;2023-02-01T19:34:04;9.20;58.20
43991;DHT22;29654;50.784;20.604;2023-02-01T19:39:06;9.20;58.10
43991;DHT22;29654;50.784;20.604;2023-02-01T19:44:10;9.30;58.10
43991;DHT22;29654;50.784;20.604;2023-02-01T19:49:14;9.30;58.10
43991;DHT22;29654;50.784;20.604;2023-02-01T19:54:17;9.30;58.00
43991;DHT22;29654;50.784;20.604;2023-02-01T19:59:21;9.30;58.00
43991;DHT22;29654;50.784;20.604;2023-02-01T20:04:24;9.30;58.10
43991;DHT22;29654;50.784;20.604;2023-02-01T20:09:28;9.40;58.10
43991;DHT22;29654;50.784;20.604;2023-02-01T20:14:32;9.40;58.20
43991;DHT22;29654;50.784;20.604;2023-02-01T20:19:34;9.40;58.20
43991;DHT22;29654;50.784;20.604;2023-02-01T20:24:37;9.40;58.10
43991;DHT22;29654;50.784;20.604;2023-02-01T20:29:41;9.50;58.00
43991;DHT22;29654;50.784;20.604;2023-02-01T20:34:44;9.40;58.10
43991;DHT22;29654;50.784;20.604;2023-02-01T20:39:50;9.40;58.10
43991;DHT22;29654;50.784;20.604;2023-02-01T20:44:54;9.40;58.10
43991;DHT22;29654;50.784;20.604;2023-02-01T20:49:57;9.40;58.20
43991;DHT22;29654;50.784;20.604;2023-02-01T20:54:59;9.40;58.10
43991;DHT22;29654;50.784;20.604;2023-02-01T21:00:04;9.40;58.10
43991;DHT22;29654;50.784;20.604;2023-02-01T21:05:10;9.50;58.30
43991;DHT22;29654;50.784;20.604;2023-02-01T21:10:12;9.50;58.10
43991;DHT22;29654;50.784;20.604;2023-02-01T21:15:16;9.50;58.00
43991;DHT22;29654;50.784;20.604;2023-02-01T21:20:20;9.50;58.00
43991;DHT22;29654;50.784;20.604;2023-02-01T21:25:23;9.50;58.00
43991;DHT22;29654;50.784;20.604;2023-02-01T21:30:27;9.50;57.90
43991;DHT22;29654;50.784;20.604;2023-02-01T21:35:32;9.50;57.90
43991;DHT22;29654;50.784;20.604;2023-02-01T21:40:38;9.50;57.80
43991;DHT22;29654;50.784;20.604;2023-02-01T21:45:42;9.40;57.70
43991;DHT22;29654;50.784;20.604;2023-02-01T21:50:46;9.40;57.80
43991;DHT22;29654;50.784;20.604;2023-02-01T21:55:49;9.30;57.90
43991;DHT22;29654;50.784;20.604;2023-02-01T22:00:53;9.40;58.00
43991;DHT22;29654;50.784;20.604;2023-02-01T22:05:56;9.40;58.00
43991;DHT22;29654;50.784;20.604;2023-02-01T22:10:58;9.40;58.00
43991;DHT22;29654;50.784;20.604;2023-02-01T22:16:02;9.40;58.00
43991;DHT22;29654;50.784;20.604;2023-02-01T22:21:05;9.40;58.00
43991;DHT22;29654;50.784;20.604;2023-02-01T22:26:11;9.40;57.90
43991;DHT22;29654;50.784;20.604;2023-02-01T22:31:16;9.40;57.90
43991;DHT22;29654;50.784;20.604;2023-02-01T22:36:19;9.40;58.00
43991;DHT22;29654;50.784;20.604;2023-02-01T22:41:21;9.30;57.90
43991;DHT22;29654;50.784;20.604;2023-02-01T22:46:27;9.30;58.00
43991;DHT22;29654;50.784;20.604;2023-02-01T22:51:31;9.30;58.00
43991;DHT22;29654;50.784;20.604;2023-02-01T22:56:36;9.30;58.10
43991;DHT22;29654;50.784;20.604;2023-02-01T23:01:40;9.30;58.20
43991;DHT22;29654;50.784;20.604;2023-02-01T23:06:43;9.30;58.10
43991;DHT22;29654;50.784;20.604;2023-02-01T23:11:46;9.30;58.10
43991;DHT22;29654;50.784;20.604;2023-02-01T23:16:50;9.30;58.00
43991;DHT22;29654;50.784;20.604;2023-02-01T23:21:53;9.30;57.90
43991;DHT22;29654;50.784;20.604;2023-02-01T23:26:55;9.20;57.80
43991;DHT22;29654;50.784;20.604;2023-02-01T23:31:59;9.10;57.80
43991;DHT22;29654;50.784;20.604;2023-02-01T23:37:02;9.10;57.90
43991;DHT22;29654;50.784;20.604;2023-02-01T23:42:05;9.10;58.00
43991;DHT22;29654;50.784;20.604;2023-02-01T23:47:09;9.00;58.00
43991;DHT22;29654;50.784;20.604;2023-02-01T23:52:12;9.00;58.00
43991;DHT22;29654;50.784;20.604;2023-02-01T23:57:14;9.00;58.10
